Terminal Aerodrome Forecast
Issued by NWS Lubbock, TX

Current Version | Previous Version | Text Only | Print | Product List | Glossary On
Versions: 1 2 3 4 5 6 7 8 9 10 11 12 13
000
FTUS44 KLUB 290520
TAFLBB
TAF
KLBB 290520Z 2906/3006 11011KT P6SM SCT250
     FM291100 16011KT P6SM BKN015
     FM291700 15015KT P6SM SCT050 BKN120=

USA.gov is the U.S. government's official web portal to all federal, state and local government web resources and services.